createdAt,value
2022-12-18T09:30:15.122Z,100.00
2022-12-18T09:32:22.318Z,100.00
2022-12-18T09:34:25.070Z,100.00
2022-12-18T09:36:27.365Z,100.00
2022-12-18T09:38:30.121Z,100.00
2022-12-18T09:40:42.799Z,100.00
2022-12-18T09:42:52.755Z,100.00
2022-12-18T09:44:55.603Z,100.00
2022-12-18T09:47:21.387Z,100.00
2022-12-18T09:49:28.735Z,100.00
2022-12-18T09:51:39.663Z,100.00
2022-12-18T09:53:44.512Z,100.00
2022-12-18T09:55:49.297Z,100.00
2022-12-18T09:58:33.455Z,100.00
2022-12-18T10:00:35.832Z,100.00
2022-12-18T10:02:38.647Z,100.00
2022-12-18T10:04:41.093Z,100.00
2022-12-18T10:07:09.078Z,100.00
2022-12-18T10:09:33.265Z,100.00
2022-12-18T10:11:50.173Z,100.00
2022-12-18T10:13:52.554Z,100.00
2022-12-18T10:15:58.334Z,100.00
2022-12-18T10:18:17.253Z,100.00
2022-12-18T10:20:36.437Z,100.00
2022-12-18T10:22:50.999Z,100.00
2022-12-18T10:25:18.237Z,100.00
2022-12-18T10:27:24.773Z,100.00
2022-12-18T10:29:27.808Z,100.00
2022-12-18T10:31:30.230Z,100.00
2022-12-18T10:33:34.087Z,100.00
2022-12-18T10:35:37.357Z,100.00
2022-12-18T10:38:07.140Z,100.00
2022-12-18T10:40:21.785Z,100.00
2022-12-18T10:42:25.273Z,100.00
2022-12-18T10:44:27.550Z,100.00
2022-12-18T10:46:30.035Z,100.00
2022-12-18T10:48:55.711Z,100.00
2022-12-18T10:51:10.927Z,100.00
2022-12-18T10:53:21.393Z,100.00
2022-12-18T10:55:28.590Z,100.00
2022-12-18T10:57:35.847Z,100.00
2022-12-18T10:59:55.885Z,100.00
2022-12-18T11:01:59.824Z,100.00
2022-12-18T11:04:09.094Z,100.00
2022-12-18T11:06:22.829Z,100.00
2022-12-18T11:08:25.604Z,100.00
2022-12-18T11:10:40.172Z,100.00
2022-12-18T11:12:42.647Z,100.00
2022-12-18T11:14:51.943Z,100.00
2022-12-18T11:17:25.316Z,100.00
2022-12-18T11:19:54.120Z,100.00
2022-12-18T11:21:57.501Z,89.27
2022-12-18T11:24:00.139Z,79.89
2022-12-18T11:26:05.080Z,71.96
2022-12-18T11:28:30.372Z,66.38
2022-12-18T11:30:37.915Z,61.39
2022-12-18T11:32:44.215Z,60.23
2022-12-18T11:34:55.950Z,57.14
2022-12-18T11:37:03.839Z,55.09
2022-12-18T11:39:32.357Z,52.11
2022-12-18T11:42:09.074Z,50.21
2022-12-18T11:44:14.768Z,48.57
2022-12-18T11:46:35.675Z,46.95
2022-12-18T11:48:46.967Z,46.40
2022-12-18T11:50:56.697Z,45.06
2022-12-18T11:53:04.226Z,44.69
2022-12-18T11:55:22.034Z,44.33
2022-12-18T11:57:39.860Z,44.63
2022-12-18T12:00:01.786Z,45.19
2022-12-18T12:02:36.800Z,45.81
2022-12-18T12:04:47.066Z,51.07
2022-12-18T12:06:49.239Z,51.98
2022-12-18T12:09:09.434Z,51.25
2022-12-18T12:11:42.948Z,50.39
2022-12-18T12:14:07.622Z,49.85
2022-12-18T12:16:38.676Z,48.80
2022-12-18T12:19:23.264Z,50.62
2022-12-18T12:21:42.114Z,52.90
2022-12-18T12:24:28.840Z,54.30
2022-12-18T12:26:44.055Z,54.97
2022-12-18T12:29:03.945Z,57.11
2022-12-18T12:31:44.264Z,57.65
2022-12-18T12:34:08.218Z,59.06
2022-12-18T12:36:28.954Z,59.70
2022-12-18T12:38:52.267Z,61.68
2022-12-18T12:41:06.440Z,59.94
2022-12-18T12:43:23.425Z,58.51
2022-12-18T12:45:40.062Z,58.83
2022-12-18T12:47:44.243Z,59.38
2022-12-18T12:49:48.767Z,59.17
2022-12-18T12:52:08.543Z,58.65
2022-12-18T12:54:20.791Z,61.60
2022-12-18T12:56:39.888Z,63.47
2022-12-18T12:58:54.037Z,67.52
2022-12-18T13:01:25.000Z,71.52
2022-12-18T13:03:40.058Z,73.84
2022-12-18T13:05:55.256Z,77.08
2022-12-18T13:08:07.678Z,77.33
2022-12-18T13:10:23.588Z,80.80
2022-12-18T13:12:47.884Z,83.49
2022-12-18T13:14:50.640Z,85.29
2022-12-18T13:17:10.827Z,88.66
2022-12-18T13:19:24.159Z,90.42
2022-12-18T13:21:33.404Z,91.45
2022-12-18T13:23:41.379Z,94.09
2022-12-18T13:25:44.592Z,95.82
2022-12-18T13:27:56.587Z,96.45
2022-12-18T13:29:59.196Z,99.14
2022-12-18T13:32:02.398Z,100.00
2022-12-18T13:34:27.441Z,100.00
2022-12-18T13:36:33.686Z,100.00
2022-12-18T13:38:38.253Z,100.00
2022-12-18T13:40:55.290Z,100.00
2022-12-18T13:43:29.828Z,100.00
2022-12-18T13:45:59.544Z,100.00
2022-12-18T13:48:02.202Z,100.00
2022-12-18T13:50:30.957Z,100.00
2022-12-18T13:52:40.428Z,100.00
2022-12-18T13:54:44.026Z,100.00
2022-12-18T13:56:47.654Z,100.00
2022-12-18T13:59:12.409Z,100.00
2022-12-18T14:01:24.929Z,100.00
2022-12-18T14:03:31.447Z,100.00
2022-12-18T14:05:38.620Z,100.00
2022-12-18T14:07:44.795Z,100.00
2022-12-18T14:10:25.922Z,100.00
2022-12-18T14:12:56.086Z,100.00
2022-12-18T14:14:59.723Z,100.00
2022-12-18T14:17:02.123Z,100.00
2022-12-18T14:19:18.159Z,100.00
2022-12-18T14:21:30.404Z,100.00
2022-12-18T14:23:32.640Z,100.00
2022-12-18T14:25:34.942Z,100.00
2022-12-18T14:27:42.729Z,100.00
2022-12-18T14:29:45.658Z,100.00
2022-12-18T14:32:18.764Z,100.00
2022-12-18T14:34:27.768Z,100.00
2022-12-18T14:36:30.968Z,100.00
2022-12-18T14:38:40.842Z,100.00
2022-12-18T14:40:44.868Z,100.00
2022-12-18T14:42:47.325Z,100.00
2022-12-18T14:45:12.316Z,100.00
2022-12-18T14:47:17.315Z,100.00
2022-12-18T14:49:32.777Z,100.00
2022-12-18T14:51:37.071Z,100.00
2022-12-18T14:53:47.740Z,100.00
2022-12-18T14:55:53.439Z,100.00
2022-12-18T14:57:57.867Z,100.00
2022-12-18T15:00:15.875Z,100.00
2022-12-18T15:02:30.086Z,100.00
2022-12-18T15:04:36.572Z,100.00
2022-12-18T15:06:41.545Z,100.00
2022-12-18T15:08:44.769Z,100.00
2022-12-18T15:10:50.033Z,100.00
2022-12-18T15:13:04.155Z,100.00
2022-12-18T15:15:40.371Z,100.00
2022-12-18T15:17:43.445Z,100.00
2022-12-18T15:19:48.453Z,100.00
2022-12-18T15:21:52.193Z,100.00
2022-12-18T15:24:04.140Z,100.00
2022-12-18T15:26:10.246Z,100.00
2022-12-18T15:28:36.977Z,100.00
2022-12-18T15:30:41.305Z,100.00
2022-12-18T15:32:46.333Z,100.00
2022-12-18T15:34:50.026Z,100.00
2022-12-18T15:36:53.390Z,100.00
2022-12-18T15:39:04.892Z,100.00
2022-12-18T15:41:24.476Z,100.00
2022-12-18T15:43:38.536Z,100.00
2022-12-18T15:45:42.347Z,100.00
2022-12-18T15:47:46.067Z,100.00
2022-12-18T15:49:49.273Z,100.00
2022-12-18T15:51:59.947Z,100.00
2022-12-18T15:54:06.702Z,100.00
2022-12-18T15:56:32.497Z,100.00
2022-12-18T15:58:36.340Z,100.00
2022-12-18T16:00:41.787Z,100.00
2022-12-18T16:02:47.041Z,100.00
2022-12-18T16:04:52.792Z,100.00
2022-12-18T16:07:14.486Z,100.00
2022-12-18T16:09:26.029Z,100.00
2022-12-18T16:11:42.756Z,100.00
2022-12-18T16:13:46.199Z,100.00
2022-12-18T16:15:51.816Z,100.00
2022-12-18T16:17:55.269Z,100.00
2022-12-18T16:20:00.502Z,100.00
2022-12-18T16:22:07.061Z,100.00
2022-12-18T16:24:31.044Z,100.00
2022-12-18T16:26:34.573Z,100.00
2022-12-18T16:28:42.495Z,100.00
2022-12-18T16:30:48.978Z,100.00
2022-12-18T16:32:52.176Z,100.00
2022-12-18T16:35:03.036Z,100.00
2022-12-18T16:37:09.778Z,100.00
2022-12-18T16:39:13.258Z,100.00
2022-12-18T16:41:47.456Z,100.00
2022-12-18T16:43:54.829Z,100.00
2022-12-18T16:46:00.566Z,100.00
2022-12-18T16:48:04.525Z,100.00
2022-12-18T16:50:09.011Z,100.00
2022-12-18T16:52:12.927Z,100.00
2022-12-18T16:54:19.040Z,100.00
2022-12-18T16:56:23.638Z,100.00
2022-12-18T16:58:27.372Z,100.00
2022-12-18T17:00:32.100Z,100.00
2022-12-18T17:02:39.293Z,100.00
2022-12-18T17:04:45.639Z,100.00
2022-12-18T17:06:52.486Z,100.00
2022-12-18T17:08:58.613Z,100.00
2022-12-18T17:11:09.061Z,100.00
2022-12-18T17:13:13.540Z,100.00
2022-12-18T17:15:17.174Z,100.00
2022-12-18T17:17:24.167Z,100.00
2022-12-18T17:19:28.915Z,100.00
2022-12-18T17:21:31.949Z,100.00
2022-12-18T17:23:35.618Z,100.00
2022-12-18T17:25:42.568Z,100.00
2022-12-18T17:27:49.120Z,100.00
2022-12-18T17:29:52.691Z,100.00
2022-12-18T17:31:57.701Z,100.00
2022-12-18T17:34:04.263Z,100.00
2022-12-18T17:36:07.867Z,100.00
2022-12-18T17:38:11.966Z,100.00
2022-12-18T17:40:15.121Z,100.00
2022-12-18T17:42:18.911Z,100.00
2022-12-18T17:44:22.412Z,100.00
2022-12-18T17:46:26.880Z,100.00
2022-12-18T17:48:31.178Z,100.00
2022-12-18T17:50:36.434Z,100.00
2022-12-18T17:52:39.921Z,100.00
2022-12-18T17:54:44.710Z,100.00
2022-12-18T17:56:52.410Z,100.00
2022-12-18T17:58:57.769Z,100.00
2022-12-18T18:01:07.826Z,100.00
2022-12-18T18:03:12.945Z,100.00
2022-12-18T18:05:16.804Z,100.00
2022-12-18T18:07:21.168Z,100.00
2022-12-18T18:09:25.049Z,100.00
2022-12-18T18:11:46.912Z,100.00
2022-12-18T18:14:01.967Z,100.00
2022-12-18T18:16:07.145Z,100.00
2022-12-18T18:18:10.655Z,100.00
2022-12-18T18:20:22.303Z,100.00
2022-12-18T18:22:26.184Z,100.00
2022-12-18T18:24:32.012Z,100.00
2022-12-18T18:26:37.228Z,100.00
2022-12-18T18:28:41.521Z,100.00
2022-12-18T18:30:45.760Z,100.00
2022-12-18T18:32:49.782Z,100.00
2022-12-18T18:34:56.986Z,100.00
2022-12-18T18:37:02.061Z,100.00
2022-12-18T18:39:05.796Z,100.00
2022-12-18T18:41:12.247Z,100.00
2022-12-18T18:43:15.510Z,100.00
2022-12-18T18:45:19.152Z,100.00
2022-12-18T18:47:22.780Z,100.00
2022-12-18T18:49:28.172Z,100.00
2022-12-18T18:51:35.049Z,100.00
2022-12-18T18:53:41.742Z,100.00
2022-12-18T18:55:44.836Z,100.00
2022-12-18T18:57:52.091Z,100.00
2022-12-18T18:59:56.337Z,100.00
2022-12-18T19:02:04.178Z,100.00
2022-12-18T19:04:09.019Z,100.00
2022-12-18T19:06:21.793Z,100.00
2022-12-18T19:08:26.631Z,100.00
2022-12-18T19:10:29.826Z,100.00
2022-12-18T19:12:54.093Z,100.00
2022-12-18T19:14:57.493Z,100.00
2022-12-18T19:17:00.608Z,100.00
2022-12-18T19:19:05.884Z,100.00
2022-12-18T19:21:10.887Z,100.00
2022-12-18T19:23:14.190Z,100.00
2022-12-18T19:25:18.418Z,100.00
2022-12-18T19:27:22.107Z,100.00
2022-12-18T19:29:25.893Z,100.00
2022-12-18T19:31:34.792Z,100.00
2022-12-18T19:33:43.495Z,100.00
2022-12-18T19:35:47.545Z,100.00
2022-12-18T19:37:51.466Z,100.00
2022-12-18T19:39:57.873Z,100.00
2022-12-18T19:42:03.706Z,100.00
2022-12-18T19:44:09.340Z,100.00
2022-12-18T19:46:15.255Z,100.00
2022-12-18T19:48:18.449Z,100.00
2022-12-18T19:50:21.564Z,100.00
2022-12-18T19:52:24.705Z,100.00
2022-12-18T19:54:28.085Z,100.00
2022-12-18T19:56:34.853Z,100.00
2022-12-18T19:58:39.027Z,100.00
2022-12-18T20:00:42.501Z,100.00
2022-12-18T20:02:48.412Z,100.00
2022-12-18T20:04:51.972Z,100.00
2022-12-18T20:06:55.287Z,100.00
2022-12-18T20:09:01.673Z,100.00
2022-12-18T20:11:05.016Z,100.00
2022-12-18T20:13:08.684Z,100.00
2022-12-18T20:15:12.604Z,100.00
2022-12-18T20:17:15.443Z,100.00
2022-12-18T20:19:18.853Z,100.00
2022-12-18T20:21:22.558Z,100.00
2022-12-18T20:23:25.956Z,100.00
2022-12-18T20:25:33.670Z,100.00
2022-12-18T20:27:36.902Z,100.00
2022-12-18T20:29:41.827Z,100.00
2022-12-18T20:31:46.203Z,100.00
2022-12-18T20:33:51.078Z,100.00
2022-12-18T20:35:55.451Z,100.00
2022-12-18T20:37:59.828Z,100.00
2022-12-18T20:40:04.526Z,100.00
2022-12-18T20:42:08.597Z,100.00
2022-12-18T20:44:22.662Z,100.00
2022-12-18T20:46:26.791Z,100.00
2022-12-18T20:48:30.450Z,100.00
2022-12-18T20:50:33.229Z,100.00
2022-12-18T20:52:36.056Z,100.00
2022-12-18T20:54:39.074Z,100.00
2022-12-18T20:56:43.646Z,100.00
2022-12-18T20:58:46.950Z,100.00
2022-12-18T21:00:49.334Z,100.00
2022-12-18T21:02:52.325Z,100.00
2022-12-18T21:04:55.260Z,100.00
2022-12-18T21:07:02.675Z,100.00
2022-12-18T21:09:06.154Z,100.00
2022-12-18T21:11:44.805Z,100.00
2022-12-18T21:13:47.346Z,100.00
2022-12-18T21:15:49.614Z,100.00
2022-12-18T21:17:52.647Z,100.00
2022-12-18T21:19:55.443Z,100.00
2022-12-18T21:21:58.346Z,100.00
2022-12-18T21:24:01.041Z,100.00
2022-12-18T21:26:21.227Z,100.00
2022-12-18T21:28:23.779Z,100.00
2022-12-18T21:30:26.433Z,100.00
2022-12-18T21:32:29.840Z,100.00
2022-12-18T21:34:35.970Z,100.00
2022-12-18T21:36:38.554Z,100.00
2022-12-18T21:38:40.950Z,100.00
2022-12-18T21:40:43.866Z,100.00
2022-12-18T21:43:05.323Z,100.00
2022-12-18T21:45:08.032Z,100.00
2022-12-18T21:47:21.412Z,100.00
2022-12-18T21:49:25.990Z,100.00
2022-12-18T21:51:28.548Z,100.00
2022-12-18T21:53:30.806Z,100.00
2022-12-18T21:55:33.448Z,100.00
2022-12-18T21:57:36.246Z,100.00
2022-12-18T21:59:40.302Z,100.00
2022-12-18T22:01:43.628Z,100.00
2022-12-18T22:03:46.463Z,100.00
2022-12-18T22:05:49.389Z,100.00
2022-12-18T22:08:03.223Z,100.00
2022-12-18T22:10:06.677Z,100.00
2022-12-18T22:12:11.959Z,100.00
2022-12-18T22:14:15.044Z,100.00
2022-12-18T22:16:20.284Z,100.00
2022-12-18T22:18:22.918Z,100.00
2022-12-18T22:20:25.229Z,100.00
2022-12-18T22:22:29.406Z,100.00
2022-12-18T22:24:31.795Z,100.00
2022-12-18T22:26:40.159Z,100.00
2022-12-18T22:29:01.935Z,100.00
2022-12-18T22:31:04.173Z,100.00
2022-12-18T22:33:06.563Z,100.00
2022-12-18T22:35:14.156Z,100.00
2022-12-18T22:37:17.971Z,100.00
2022-12-18T22:39:28.514Z,100.00
2022-12-18T22:41:32.036Z,100.00
2022-12-18T22:43:34.931Z,100.00
2022-12-18T22:45:38.531Z,100.00
2022-12-18T22:47:41.644Z,100.00
2022-12-18T22:49:44.005Z,100.00
2022-12-18T22:51:47.738Z,100.00
2022-12-18T22:53:50.958Z,100.00
2022-12-18T22:56:00.530Z,100.00
2022-12-18T22:58:02.788Z,100.00
2022-12-18T23:00:05.994Z,100.00
2022-12-18T23:02:08.594Z,100.00
2022-12-18T23:04:11.436Z,100.00
2022-12-18T23:06:14.746Z,100.00
2022-12-18T23:08:17.042Z,100.00
2022-12-18T23:10:19.326Z,100.00
2022-12-18T23:12:21.930Z,100.00
2022-12-18T23:14:24.271Z,100.00
2022-12-18T23:16:26.905Z,100.00
2022-12-18T23:18:29.551Z,100.00
2022-12-18T23:20:31.814Z,100.00
2022-12-18T23:22:34.078Z,100.00
2022-12-18T23:24:36.732Z,100.00
2022-12-18T23:26:39.190Z,100.00
2022-12-18T23:28:42.533Z,100.00
2022-12-18T23:30:45.072Z,100.00
2022-12-18T23:32:47.424Z,100.00
2022-12-18T23:34:49.698Z,100.00
2022-12-18T23:36:56.033Z,100.00
2022-12-18T23:39:00.639Z,100.00
2022-12-18T23:41:10.896Z,100.00
2022-12-18T23:43:13.450Z,100.00
2022-12-18T23:45:18.148Z,100.00
